createdAt,value
2017-01-31T00:00:23.821Z,85.89
2017-01-31T00:01:23.796Z,86.08
2017-01-31T00:02:23.797Z,86.36
2017-01-31T00:03:23.768Z,86.55
2017-01-31T00:04:23.738Z,86.46
2017-01-31T00:05:23.919Z,86.65
2017-01-31T00:06:23.693Z,86.65
2017-01-31T00:07:23.669Z,86.18
2017-01-31T00:08:23.279Z,86.74
2017-01-31T00:09:23.632Z,86.83
2017-01-31T00:10:23.610Z,87.31
2017-01-31T00:11:23.592Z,86.74
2017-01-31T00:12:23.577Z,87.21
2017-01-31T00:13:23.552Z,87.12
2017-01-31T00:14:23.527Z,86.46
2017-01-31T00:15:23.505Z,86.83
2017-01-31T00:16:23.485Z,86.93
2017-01-31T00:17:23.469Z,87.12
2017-01-31T00:18:23.443Z,86.55
2017-01-31T00:19:23.428Z,86.93
2017-01-31T00:20:23.401Z,86.93
2017-01-31T00:21:23.379Z,86.83
2017-01-31T00:22:23.357Z,87.21
2017-01-31T00:23:23.333Z,87.21
2017-01-31T00:24:23.313Z,86.36
2017-01-31T00:25:23.295Z,86.83
2017-01-31T00:26:23.273Z,87.02
2017-01-31T00:27:23.252Z,86.93
2017-01-31T00:28:23.230Z,86.46
2017-01-31T00:29:23.216Z,86.74
2017-01-31T00:30:23.196Z,86.55
2017-01-31T00:31:23.168Z,85.99
2017-01-31T00:32:23.161Z,86.18
2017-01-31T00:33:23.125Z,86.46
2017-01-31T00:34:23.107Z,86.18
2017-01-31T00:35:23.083Z,85.99
2017-01-31T00:36:23.065Z,86.08
2017-01-31T00:37:23.041Z,85.99
2017-01-31T00:38:23.021Z,85.99
2017-01-31T00:39:23.000Z,86.18
2017-01-31T00:40:22.979Z,86.18
2017-01-31T00:41:22.957Z,85.99
2017-01-31T00:42:22.939Z,86.65
2017-01-31T00:43:22.917Z,86.36
2017-01-31T00:44:22.902Z,86.18
2017-01-31T00:45:22.875Z,86.18
2017-01-31T00:46:22.857Z,86.36
2017-01-31T00:47:22.833Z,86.08
2017-01-31T00:48:22.814Z,85.89
2017-01-31T00:49:22.790Z,86.08
2017-01-31T00:50:22.768Z,85.7
2017-01-31T00:51:22.750Z,85.8
2017-01-31T00:52:22.730Z,85.51
2017-01-31T00:53:22.705Z,85.42
2017-01-31T00:54:22.686Z,85.61
2017-01-31T00:55:22.668Z,85.04
2017-01-31T00:56:22.640Z,85.04
2017-01-31T00:57:22.619Z,84.94
2017-01-31T00:58:22.206Z,85.04
2017-01-31T00:59:22.578Z,84.47
2017-01-31T01:00:22.556Z,84.47
2017-01-31T01:01:22.539Z,84.28
2017-01-31T01:02:22.518Z,84.47
2017-01-31T01:03:22.494Z,84.09
2017-01-31T01:04:22.474Z,84
2017-01-31T01:05:22.452Z,84.09
2017-01-31T01:06:22.444Z,83.9
2017-01-31T01:07:22.415Z,83.43
2017-01-31T01:08:22.392Z,83.81
2017-01-31T01:09:22.370Z,83.62
2017-01-31T01:10:22.348Z,84.28
2017-01-31T01:11:22.323Z,83.81
2017-01-31T01:12:22.310Z,83.71
2017-01-31T01:13:22.281Z,83.43
2017-01-31T01:14:22.262Z,83.43
2017-01-31T01:15:22.243Z,83.14
2017-01-31T01:16:21.829Z,82.95
2017-01-31T01:17:22.198Z,83.14
2017-01-31T01:18:22.177Z,82.95
2017-01-31T01:19:22.159Z,83.33
2017-01-31T01:20:22.136Z,83.05
2017-01-31T01:21:22.116Z,83.14
2017-01-31T01:22:22.095Z,82.57
2017-01-31T01:23:22.071Z,82.48
2017-01-31T01:24:22.054Z,82.57
2017-01-31T01:25:22.029Z,82.57
2017-01-31T01:26:22.008Z,82.57
2017-01-31T01:27:22.027Z,82.67
2017-01-31T01:28:22.003Z,82.1
2017-01-31T01:29:21.946Z,82.39
2017-01-31T01:30:21.925Z,82.29
2017-01-31T01:31:21.901Z,81.92
2017-01-31T01:32:21.881Z,81.92
2017-01-31T01:33:21.861Z,82.1
2017-01-31T01:34:21.836Z,81.72
2017-01-31T01:35:21.823Z,81.92
2017-01-31T01:36:21.400Z,81.92
2017-01-31T01:37:21.773Z,82.1
2017-01-31T01:38:21.757Z,82.1
2017-01-31T01:39:21.733Z,82.1
2017-01-31T01:40:21.715Z,82.1
2017-01-31T01:41:21.691Z,81.72
2017-01-31T01:42:21.671Z,82.1
2017-01-31T01:43:21.651Z,82.1
2017-01-31T01:44:21.629Z,82.1
2017-01-31T01:45:21.608Z,81.92
2017-01-31T01:46:21.589Z,81.92
2017-01-31T01:47:21.565Z,82.2
2017-01-31T01:48:21.544Z,81.92
2017-01-31T01:49:21.527Z,81.53
2017-01-31T01:50:21.503Z,81.82
2017-01-31T01:51:21.481Z,82.1
2017-01-31T01:52:21.464Z,82.1
2017-01-31T01:53:21.439Z,82.1
2017-01-31T01:54:21.415Z,82.48
2017-01-31T01:55:21.395Z,82.39
2017-01-31T01:56:21.376Z,82.86
2017-01-31T01:57:21.356Z,82.76
2017-01-31T01:58:21.333Z,82.57
2017-01-31T01:59:21.310Z,82.29
2017-01-31T02:00:20.893Z,82.48
2017-01-31T02:01:21.267Z,83.14
2017-01-31T02:02:21.246Z,83.43
2017-01-31T02:03:21.227Z,83.24
2017-01-31T02:04:21.208Z,83.05
2017-01-31T02:05:21.426Z,82.95
2017-01-31T02:06:21.164Z,83.43
2017-01-31T02:07:21.142Z,83.52
2017-01-31T02:08:21.125Z,84
2017-01-31T02:09:20.710Z,83.62
2017-01-31T02:10:21.077Z,83.52
2017-01-31T02:11:21.059Z,83.81
2017-01-31T02:12:21.071Z,83.52
2017-01-31T02:13:21.019Z,83.9
2017-01-31T02:14:20.995Z,83.81
2017-01-31T02:15:20.971Z,83.9
2017-01-31T02:16:20.955Z,83.9
2017-01-31T02:17:20.928Z,83.62
2017-01-31T02:18:20.911Z,83.71
2017-01-31T02:19:20.890Z,83.52
2017-01-31T02:20:20.870Z,83.33
2017-01-31T02:21:20.848Z,83.33
2017-01-31T02:22:20.830Z,83.24
2017-01-31T02:23:20.807Z,83.52
2017-01-31T02:24:20.786Z,83.52
2017-01-31T02:25:20.762Z,83.05
2017-01-31T02:26:20.742Z,83.05
2017-01-31T02:27:20.721Z,83.05
2017-01-31T02:28:20.704Z,82.76
2017-01-31T02:29:20.679Z,83.33
2017-01-31T02:30:20.660Z,83.81
2017-01-31T02:31:20.639Z,83.71
2017-01-31T02:32:20.625Z,83.71
2017-01-31T02:33:20.596Z,83.52
2017-01-31T02:34:20.575Z,83.81
2017-01-31T02:35:20.554Z,83.71
2017-01-31T02:36:20.533Z,83.71
2017-01-31T02:37:20.513Z,83.71
2017-01-31T02:38:20.491Z,83.62
2017-01-31T02:39:20.468Z,83.81
2017-01-31T02:40:20.447Z,83.9
2017-01-31T02:41:20.426Z,84
2017-01-31T02:42:20.407Z,83.81
2017-01-31T02:43:20.385Z,83.9
2017-01-31T02:44:20.365Z,83.9
2017-01-31T02:45:20.342Z,83.9
2017-01-31T02:46:20.322Z,84.38
2017-01-31T02:47:20.297Z,83.9
2017-01-31T02:48:20.276Z,84
2017-01-31T02:49:19.863Z,84.09
2017-01-31T02:50:20.237Z,84.47
2017-01-31T02:51:20.220Z,84.38
2017-01-31T02:52:20.198Z,84.56
2017-01-31T02:53:20.170Z,84.75
2017-01-31T02:54:20.156Z,84.38
2017-01-31T02:55:20.132Z,84.38
2017-01-31T02:56:20.115Z,84.75
2017-01-31T02:57:20.088Z,84.47
2017-01-31T02:58:20.068Z,84.66
2017-01-31T02:59:20.046Z,84.19
2017-01-31T03:00:20.032Z,84.56
2017-01-31T03:01:20.008Z,84.56
2017-01-31T03:02:19.984Z,84.28
2017-01-31T03:03:19.964Z,84.66
2017-01-31T03:04:19.943Z,84.66
2017-01-31T03:05:19.924Z,84.66
2017-01-31T03:06:19.899Z,84.28
2017-01-31T03:07:19.880Z,84.47
2017-01-31T03:08:19.858Z,84.47
2017-01-31T03:09:19.835Z,84.66
2017-01-31T03:10:19.813Z,84.56
2017-01-31T03:11:19.824Z,84.09
2017-01-31T03:12:19.377Z,84.56
2017-01-31T03:13:19.752Z,84
2017-01-31T03:14:19.729Z,83.9
2017-01-31T03:15:19.714Z,84.28
2017-01-31T03:16:19.684Z,84.56
2017-01-31T03:17:19.680Z,83.9
2017-01-31T03:18:19.645Z,84.09
2017-01-31T03:19:19.229Z,84.19
2017-01-31T03:20:19.210Z,84.09
2017-01-31T03:21:19.581Z,84.09
2017-01-31T03:22:19.571Z,84.56
2017-01-31T03:23:19.540Z,84.19
2017-01-31T03:24:19.524Z,83.9
2017-01-31T03:25:19.502Z,84.09
2017-01-31T03:26:19.481Z,84.09
2017-01-31T03:27:19.460Z,84.56
2017-01-31T03:28:19.437Z,84.28
2017-01-31T03:29:19.413Z,84.38
2017-01-31T03:30:19.395Z,84.38
2017-01-31T03:31:19.377Z,84.09
2017-01-31T03:32:19.351Z,84.38
2017-01-31T03:33:19.333Z,84.09
2017-01-31T03:34:19.310Z,84.09
2017-01-31T03:35:19.299Z,83.81
2017-01-31T03:36:19.274Z,83.43
2017-01-31T03:37:19.254Z,83.9
2017-01-31T03:38:19.226Z,83.33
2017-01-31T03:39:19.237Z,83.71
2017-01-31T03:40:19.186Z,83.9
2017-01-31T03:41:19.177Z,83.62
2017-01-31T03:42:19.142Z,83.62
2017-01-31T03:43:19.136Z,83.33
2017-01-31T03:44:19.099Z,83.43
2017-01-31T03:45:19.099Z,83.14
2017-01-31T03:46:19.062Z,83.05
2017-01-31T03:47:19.049Z,82.95
2017-01-31T03:48:19.018Z,82.86
2017-01-31T03:49:18.996Z,82.95
2017-01-31T03:50:18.973Z,82.67
2017-01-31T03:51:18.955Z,82.95
2017-01-31T03:52:18.933Z,82.67
2017-01-31T03:53:18.909Z,82.57
2017-01-31T03:54:18.893Z,82.67
2017-01-31T03:55:18.874Z,82.39
2017-01-31T03:56:18.851Z,82.67
2017-01-31T03:57:18.833Z,82.57
2017-01-31T03:58:18.809Z,82.48
2017-01-31T03:59:18.795Z,82.29
2017-01-31T04:00:18.770Z,82.39
2017-01-31T04:01:18.357Z,81.92
2017-01-31T04:02:18.725Z,81.82
2017-01-31T04:03:18.734Z,81.72
2017-01-31T04:04:18.681Z,82.1
2017-01-31T04:05:18.869Z,81.72
2017-01-31T04:06:18.643Z,82.01
2017-01-31T04:07:18.225Z,82.01
2017-01-31T04:08:18.638Z,81.44
2017-01-31T04:09:18.588Z,82.1
2017-01-31T04:10:18.565Z,81.92
2017-01-31T04:11:18.540Z,82.1
2017-01-31T04:12:18.518Z,82.1
2017-01-31T04:13:18.495Z,81.92
2017-01-31T04:14:18.473Z,81.44
2017-01-31T04:15:18.456Z,81.82
2017-01-31T04:16:18.041Z,82.1
2017-01-31T04:17:18.422Z,82.01
2017-01-31T04:18:18.396Z,82.01
2017-01-31T04:19:17.977Z,81.82
2017-01-31T04:20:18.350Z,81.53
2017-01-31T04:21:18.327Z,81.34
2017-01-31T04:22:18.310Z,81.34
2017-01-31T04:23:18.291Z,81.34
2017-01-31T04:24:18.266Z,81.34
2017-01-31T04:25:18.243Z,81.25
2017-01-31T04:26:18.228Z,81.34
2017-01-31T04:27:18.205Z,81.34
2017-01-31T04:28:18.186Z,81.15
2017-01-31T04:29:18.165Z,80.96
2017-01-31T04:30:18.144Z,80.96
2017-01-31T04:31:18.124Z,81.15
2017-01-31T04:32:18.108Z,81.15
2017-01-31T04:33:18.082Z,81.15
2017-01-31T04:34:18.068Z,81.34
2017-01-31T04:35:18.040Z,81.34
2017-01-31T04:36:18.037Z,81.15
2017-01-31T04:37:18.009Z,81.25
2017-01-31T04:38:17.980Z,81.15
2017-01-31T04:39:17.960Z,81.34
2017-01-31T04:40:17.536Z,81.15
2017-01-31T04:41:17.916Z,81.34
2017-01-31T04:42:17.895Z,81.34
2017-01-31T04:43:17.880Z,81.44
2017-01-31T04:44:17.852Z,81.15
2017-01-31T04:45:17.832Z,81.34
2017-01-31T04:46:17.811Z,81.34
2017-01-31T04:47:17.789Z,81.34
2017-01-31T04:48:17.769Z,81.53
2017-01-31T04:49:17.750Z,81.15
2017-01-31T04:50:17.729Z,81.34
2017-01-31T04:51:17.713Z,81.34
2017-01-31T04:52:17.701Z,81.34
2017-01-31T04:53:17.666Z,81.34
2017-01-31T04:54:17.248Z,81.34
2017-01-31T04:55:17.627Z,81.34
2017-01-31T04:56:17.607Z,81.34
2017-01-31T04:57:17.585Z,81.34
2017-01-31T04:58:17.563Z,81.44
2017-01-31T04:59:17.541Z,81.44
2017-01-31T05:00:17.520Z,81.34
2017-01-31T05:01:17.502Z,81.34
2017-01-31T05:02:17.484Z,81.25
2017-01-31T05:03:17.461Z,81.06
2017-01-31T05:04:17.440Z,80.87
2017-01-31T05:05:17.418Z,81.34
2017-01-31T05:06:17.398Z,81.25
2017-01-31T05:07:17.376Z,81.15
2017-01-31T05:08:17.355Z,81.15
2017-01-31T05:09:16.939Z,81.15
2017-01-31T05:10:17.327Z,81.34
2017-01-31T05:11:17.295Z,81.25
2017-01-31T05:12:17.299Z,81.34
2017-01-31T05:13:17.251Z,81.44
2017-01-31T05:14:17.230Z,81.44
2017-01-31T05:15:17.213Z,81.53
2017-01-31T05:16:17.190Z,81.92
2017-01-31T05:17:17.170Z,81.72
2017-01-31T05:18:17.155Z,81.44
2017-01-31T05:19:17.129Z,81.53
2017-01-31T05:20:17.107Z,81.44
2017-01-31T05:21:17.086Z,81.25
2017-01-31T05:22:17.067Z,80.96
2017-01-31T05:23:17.050Z,81.15
2017-01-31T05:24:16.634Z,81.15
2017-01-31T05:25:17.008Z,81.34
2017-01-31T05:26:16.985Z,81.34
2017-01-31T05:27:16.962Z,81.34
2017-01-31T05:28:16.944Z,81.44
2017-01-31T05:29:16.923Z,81.44
2017-01-31T05:30:16.904Z,81.34
2017-01-31T05:31:16.892Z,81.44
2017-01-31T05:32:16.464Z,81.15
2017-01-31T05:33:16.866Z,80.96
2017-01-31T05:34:16.823Z,80.96
2017-01-31T05:35:16.800Z,81.25
2017-01-31T05:36:16.784Z,81.44
2017-01-31T05:37:16.768Z,80.68
2017-01-31T05:38:16.739Z,81.25
2017-01-31T05:39:16.718Z,81.34
2017-01-31T05:40:16.700Z,80.77
2017-01-31T05:41:16.676Z,81.34
2017-01-31T05:42:16.657Z,81.25
2017-01-31T05:43:16.633Z,80.96
2017-01-31T05:44:16.630Z,81.34
2017-01-31T05:45:16.598Z,81.15
2017-01-31T05:46:16.570Z,80.87
2017-01-31T05:47:16.561Z,81.06
2017-01-31T05:48:16.531Z,80.96
2017-01-31T05:49:16.511Z,80.87
2017-01-31T05:50:16.492Z,80.96
2017-01-31T05:51:16.468Z,80.96
2017-01-31T05:52:16.446Z,81.53
2017-01-31T05:53:16.430Z,81.34
2017-01-31T05:54:16.411Z,81.44
2017-01-31T05:55:16.385Z,81.25
2017-01-31T05:56:16.376Z,81.06
2017-01-31T05:57:16.361Z,81.15
2017-01-31T05:58:16.333Z,81.44
2017-01-31T05:59:16.306Z,81.34
2017-01-31T06:00:16.284Z,81.34
2017-01-31T06:01:16.264Z,81.34
2017-01-31T06:02:15.867Z,81.34
2017-01-31T06:03:16.229Z,81.53
2017-01-31T06:04:15.809Z,81.44
2017-01-31T06:05:16.394Z,81.53
2017-01-31T06:06:16.163Z,81.44
2017-01-31T06:07:16.148Z,80.87
2017-01-31T06:08:16.121Z,81.06
2017-01-31T06:09:16.102Z,81.34
2017-01-31T06:10:16.077Z,81.44
2017-01-31T06:11:16.056Z,81.34
2017-01-31T06:12:16.039Z,81.53
2017-01-31T06:13:16.017Z,80.87
2017-01-31T06:14:15.998Z,81.25
2017-01-31T06:15:15.973Z,81.25
2017-01-31T06:16:15.955Z,81.34
2017-01-31T06:17:15.945Z,81.53
2017-01-31T06:18:15.916Z,81.44
2017-01-31T06:19:15.514Z,81.72
2017-01-31T06:20:15.872Z,81.44
2017-01-31T06:21:15.856Z,82.1
2017-01-31T06:22:15.830Z,81.92
2017-01-31T06:23:15.814Z,81.72
2017-01-31T06:24:15.790Z,81.92
2017-01-31T06:25:15.768Z,81.72
2017-01-31T06:26:15.765Z,82.01
2017-01-31T06:27:15.735Z,82.1
2017-01-31T06:28:15.715Z,81.92
2017-01-31T06:29:15.687Z,81.92
2017-01-31T06:30:15.667Z,82.1
2017-01-31T06:31:15.250Z,82.1
2017-01-31T06:32:15.627Z,81.82
2017-01-31T06:33:15.604Z,82.1
2017-01-31T06:34:15.583Z,82.01
2017-01-31T06:35:15.560Z,82.1
2017-01-31T06:36:15.540Z,81.82
2017-01-31T06:37:15.521Z,81.92
2017-01-31T06:38:15.499Z,81.92
2017-01-31T06:39:15.477Z,82.48
2017-01-31T06:40:15.462Z,82.48
2017-01-31T06:41:15.444Z,82.67
2017-01-31T06:42:15.417Z,82.95
2017-01-31T06:43:15.398Z,82.76
2017-01-31T06:44:15.376Z,83.14
2017-01-31T06:45:15.356Z,83.33
2017-01-31T06:46:15.340Z,82.95
2017-01-31T06:47:15.316Z,82.95
2017-01-31T06:48:15.313Z,82.86
2017-01-31T06:49:15.275Z,82.86
2017-01-31T06:50:15.260Z,83.14
2017-01-31T06:51:15.233Z,83.24
2017-01-31T06:52:15.217Z,83.14
2017-01-31T06:53:15.191Z,82.86
2017-01-31T06:54:15.166Z,82.76
2017-01-31T06:55:15.149Z,83.43
2017-01-31T06:56:15.129Z,84.09
2017-01-31T06:57:15.110Z,83.43
2017-01-31T06:58:15.090Z,84.09
2017-01-31T06:59:15.069Z,84.47
2017-01-31T07:00:15.051Z,84.38
2017-01-31T07:01:15.031Z,85.13
2017-01-31T07:02:15.005Z,84.94
2017-01-31T07:03:14.986Z,85.13
2017-01-31T07:04:14.966Z,85.51
2017-01-31T07:05:14.954Z,85.23
2017-01-31T07:06:14.928Z,85.32
2017-01-31T07:07:14.903Z,85.99
2017-01-31T07:08:14.896Z,86.27
2017-01-31T07:09:14.861Z,85.7
2017-01-31T07:10:14.843Z,85.8
2017-01-31T07:11:14.839Z,85.51
2017-01-31T07:12:14.801Z,85.7
2017-01-31T07:13:14.775Z,85.23
2017-01-31T07:14:14.756Z,85.7
2017-01-31T07:15:14.740Z,85.99
2017-01-31T07:16:14.716Z,85.04
2017-01-31T07:17:14.697Z,85.7
2017-01-31T07:18:14.675Z,85.42
2017-01-31T07:19:14.655Z,85.42
2017-01-31T07:20:14.643Z,85.8
2017-01-31T07:21:14.611Z,85.61
2017-01-31T07:22:14.599Z,85.32
2017-01-31T07:23:14.581Z,85.42
2017-01-31T07:24:14.556Z,85.04
2017-01-31T07:25:14.536Z,85.13
2017-01-31T07:26:14.114Z,85.61
2017-01-31T07:27:14.513Z,85.7
2017-01-31T07:28:14.486Z,85.8
2017-01-31T07:29:14.455Z,85.8
2017-01-31T07:30:14.430Z,85.99
2017-01-31T07:31:14.419Z,85.8
2017-01-31T07:32:14.387Z,85.23
2017-01-31T07:33:14.367Z,85.8
2017-01-31T07:34:14.347Z,85.23
2017-01-31T07:35:14.323Z,85.32
2017-01-31T07:36:14.306Z,85.23
2017-01-31T07:37:14.285Z,85.8
2017-01-31T07:38:14.261Z,85.99
2017-01-31T07:39:14.242Z,85.89
2017-01-31T07:40:14.222Z,85.89
2017-01-31T07:41:14.204Z,85.13
2017-01-31T07:42:14.185Z,85.51
2017-01-31T07:43:14.163Z,85.61
2017-01-31T07:44:14.140Z,85.32
2017-01-31T07:45:14.119Z,85.42
2017-01-31T07:46:13.702Z,85.23
2017-01-31T07:47:14.080Z,85.7
2017-01-31T07:48:14.059Z,85.99
2017-01-31T07:49:14.036Z,85.8
2017-01-31T07:50:14.020Z,85.99
2017-01-31T07:51:14.005Z,85.99
2017-01-31T07:52:13.976Z,86.27
2017-01-31T07:53:13.955Z,86.08
2017-01-31T07:54:13.935Z,85.89
2017-01-31T07:55:13.912Z,86.08
2017-01-31T07:56:13.891Z,85.7
2017-01-31T07:57:13.877Z,85.89
2017-01-31T07:58:13.855Z,86.08
2017-01-31T07:59:13.839Z,86.18
2017-01-31T08:00:13.819Z,86.18
2017-01-31T08:01:13.794Z,85.89
2017-01-31T08:02:13.775Z,85.89
2017-01-31T08:03:13.766Z,85.99
2017-01-31T08:04:13.737Z,86.18
2017-01-31T08:05:13.710Z,86.18
2017-01-31T08:06:13.689Z,86.18
2017-01-31T08:07:13.669Z,86.18
2017-01-31T08:08:13.646Z,85.99
2017-01-31T08:09:13.629Z,86.18
2017-01-31T08:10:13.213Z,86.46
2017-01-31T08:11:13.587Z,86.36
2017-01-31T08:12:13.568Z,86.55
2017-01-31T08:13:13.548Z,87.12
2017-01-31T08:14:13.130Z,86.93
2017-01-31T08:15:13.519Z,87.21
2017-01-31T08:16:13.485Z,86.65
2017-01-31T08:17:13.472Z,87.12
2017-01-31T08:18:13.446Z,87.31
2017-01-31T08:19:13.428Z,87.12
2017-01-31T08:20:13.414Z,87.12
2017-01-31T08:21:13.386Z,87.31
2017-01-31T08:22:12.969Z,86.46
2017-01-31T08:23:13.342Z,86.36
2017-01-31T08:24:13.320Z,86.55
2017-01-31T08:25:13.301Z,86.55
2017-01-31T08:26:13.283Z,86.27
2017-01-31T08:27:12.868Z,86.36
2017-01-31T08:28:13.245Z,86.36
2017-01-31T08:29:12.825Z,86.18
2017-01-31T08:30:13.203Z,86.08
2017-01-31T08:31:13.179Z,85.99
2017-01-31T08:32:12.764Z,85.99
2017-01-31T08:33:13.150Z,86.27
2017-01-31T08:34:12.749Z,86.27
2017-01-31T08:35:12.702Z,86.36
2017-01-31T08:36:12.686Z,86.08
2017-01-31T08:37:12.667Z,86.55
2017-01-31T08:38:13.038Z,86.46
2017-01-31T08:39:13.019Z,85.89
2017-01-31T08:40:12.998Z,85.99
2017-01-31T08:41:12.977Z,86.22
2017-01-31T08:42:12.959Z,85.84
2017-01-31T08:43:12.939Z,85.23
2017-01-31T08:44:12.919Z,85.36
2017-01-31T08:45:12.898Z,85.42
2017-01-31T08:46:12.874Z,85.17
2017-01-31T08:47:12.857Z,85.55
2017-01-31T08:48:12.833Z,84.99
2017-01-31T08:49:12.818Z,84.61
2017-01-31T08:50:12.820Z,85.08
2017-01-31T08:51:12.804Z,84.8
2017-01-31T08:52:12.762Z,84.42
2017-01-31T08:53:12.738Z,84.51
2017-01-31T08:54:12.712Z,84.51
2017-01-31T08:55:12.695Z,84.89
2017-01-31T08:56:12.675Z,85.46
2017-01-31T08:57:12.658Z,84.99
2017-01-31T08:58:12.633Z,85.08
2017-01-31T08:59:12.612Z,84.99
2017-01-31T09:00:12.593Z,84.99
2017-01-31T09:01:12.576Z,85.08
2017-01-31T09:02:12.559Z,85.65
2017-01-31T09:03:12.532Z,86.03
2017-01-31T09:04:12.514Z,86.31
2017-01-31T09:05:12.496Z,86.22
2017-01-31T09:06:12.472Z,86.12
2017-01-31T09:07:12.458Z,86.12
2017-01-31T09:08:12.438Z,86.12
2017-01-31T09:09:12.424Z,86.22
2017-01-31T09:10:11.998Z,86.03
2017-01-31T09:11:12.376Z,86.31
2017-01-31T09:12:12.354Z,85.84
2017-01-31T09:13:11.934Z,86.03
2017-01-31T09:14:12.321Z,85.27
2017-01-31T09:15:12.297Z,86.03
2017-01-31T09:16:12.275Z,86.03
2017-01-31T09:17:12.260Z,86.12
2017-01-31T09:18:12.241Z,86.22
2017-01-31T09:19:12.215Z,86.03
2017-01-31T09:20:12.191Z,86.22
2017-01-31T09:21:12.176Z,86.79
2017-01-31T09:22:12.159Z,87.07
2017-01-31T09:23:12.139Z,87.26
2017-01-31T09:24:12.120Z,88.02
2017-01-31T09:25:12.151Z,88.59
2017-01-31T09:26:12.084Z,88.49
2017-01-31T09:27:12.054Z,88.3
2017-01-31T09:28:12.037Z,89.06
2017-01-31T09:29:12.017Z,89.15
2017-01-31T09:30:11.995Z,90.2
2017-01-31T09:31:11.979Z,90.01
2017-01-31T09:32:11.965Z,90.1
2017-01-31T09:33:11.936Z,89.63
2017-01-31T09:34:11.523Z,89.34
2017-01-31T09:35:11.897Z,91.14
2017-01-31T09:36:11.885Z,91.9
2017-01-31T09:37:11.860Z,92.57
2017-01-31T09:38:11.842Z,92.57
2017-01-31T09:39:11.822Z,93.04
2017-01-31T09:40:11.808Z,94.37
2017-01-31T09:41:11.785Z,96.64
2017-01-31T09:42:11.765Z,96.73
2017-01-31T09:43:11.746Z,96.55
2017-01-31T09:44:11.725Z,96.45
2017-01-31T09:45:11.709Z,95.79
2017-01-31T09:46:11.292Z,95.98
2017-01-31T09:47:11.673Z,95.69
2017-01-31T09:48:11.650Z,95.98
2017-01-31T09:49:11.632Z,95.69
2017-01-31T09:50:11.607Z,96.07
2017-01-31T09:51:11.592Z,96.36
2017-01-31T09:52:11.170Z,96.07
2017-01-31T09:53:11.548Z,95.98
2017-01-31T09:54:11.528Z,97.11
2017-01-31T09:55:11.509Z,97.21
2017-01-31T09:56:11.103Z,96.26
2017-01-31T09:57:11.479Z,95.98
2017-01-31T09:58:11.486Z,96.22
2017-01-31T09:59:11.036Z,96.5
2017-01-31T10:00:11.020Z,95.84
2017-01-31T10:01:11.401Z,95.74
2017-01-31T10:02:10.978Z,96.73
2017-01-31T10:03:11.354Z,97.11
2017-01-31T10:04:11.338Z,96.97
2017-01-31T10:05:11.322Z,99.25
2017-01-31T10:06:11.103Z,99.67
2017-01-31T10:07:11.279Z,99.99
2017-01-31T10:08:11.261Z,99.99
2017-01-31T10:09:11.247Z,99.99
2017-01-31T10:10:11.243Z,99.99
2017-01-31T10:11:11.203Z,99.99
2017-01-31T10:12:11.180Z,99.99
2017-01-31T10:13:11.164Z,99.99
2017-01-31T10:14:10.753Z,99.99
2017-01-31T10:15:10.729Z,99.99
2017-01-31T10:16:11.102Z,99.99
2017-01-31T10:17:10.689Z,99.99
2017-01-31T10:18:10.667Z,99.99
2017-01-31T10:19:11.050Z,99.99
2017-01-31T10:20:11.026Z,99.99
2017-01-31T10:21:11.010Z,99.99
2017-01-31T10:22:10.986Z,99.99
2017-01-31T10:23:10.571Z,99.99
2017-01-31T10:24:10.964Z,99.99
2017-01-31T10:25:10.545Z,99.99
2017-01-31T10:26:10.916Z,99.99
2017-01-31T10:27:10.894Z,99.99
2017-01-31T10:28:10.492Z,99.99
2017-01-31T10:29:10.858Z,99.99
2017-01-31T10:30:10.438Z,99.99
2017-01-31T10:31:10.816Z,99.99
2017-01-31T10:32:10.399Z,99.99
2017-01-31T10:33:10.803Z,99.99
2017-01-31T10:34:10.362Z,99.99
2017-01-31T10:35:10.738Z,99.99
2017-01-31T10:36:10.328Z,99.99
2017-01-31T10:37:10.301Z,99.99
2017-01-31T10:38:10.281Z,99.99
2017-01-31T10:39:10.661Z,99.99
2017-01-31T10:40:10.403Z,99.99
2017-01-31T10:41:10.236Z,99.99
2017-01-31T10:42:10.605Z,99.99
2017-01-31T10:43:10.189Z,99.99
2017-01-31T10:44:10.175Z,99.99
2017-01-31T10:45:10.150Z,99.99
2017-01-31T10:46:10.130Z,99.99
2017-01-31T10:47:10.108Z,99.99
2017-01-31T10:48:10.092Z,99.99
2017-01-31T10:49:10.473Z,99.99
2017-01-31T10:50:10.451Z,99.99
2017-01-31T10:51:10.429Z,99.99
2017-01-31T10:52:10.411Z,99.99
2017-01-31T10:53:10.394Z,99.99
2017-01-31T10:54:10.371Z,99.99
2017-01-31T10:55:10.356Z,99.99
2017-01-31T10:56:10.335Z,99.99
2017-01-31T10:57:10.317Z,99.99
2017-01-31T10:58:10.295Z,99.99
2017-01-31T10:59:10.283Z,99.99
2017-01-31T11:00:09.867Z,99.99
2017-01-31T11:01:10.240Z,99.99
2017-01-31T11:02:09.823Z,99.99
2017-01-31T11:03:10.203Z,99.99
2017-01-31T11:04:09.784Z,99.99
2017-01-31T11:05:10.166Z,99.99
2017-01-31T11:06:10.143Z,99.99
2017-01-31T11:07:10.125Z,99.99
2017-01-31T11:08:10.123Z,99.99
2017-01-31T11:09:10.098Z,99.99
2017-01-31T11:10:10.072Z,99.99
2017-01-31T11:11:10.054Z,99.99
2017-01-31T11:12:10.030Z,99.99
2017-01-31T11:13:10.012Z,99.99
2017-01-31T11:14:09.996Z,99.99
2017-01-31T11:15:09.586Z,99.99
2017-01-31T11:16:09.951Z,99.99
2017-01-31T11:17:09.935Z,99.99
2017-01-31T11:18:09.918Z,99.99
2017-01-31T11:19:09.915Z,99.99
2017-01-31T11:20:09.885Z,99.99
2017-01-31T11:21:09.872Z,99.99
2017-01-31T11:22:09.847Z,99.99
2017-01-31T11:23:09.827Z,99.99
2017-01-31T11:24:09.804Z,99.99
2017-01-31T11:25:09.785Z,99.99
2017-01-31T11:26:09.377Z,99.99
2017-01-31T11:27:09.749Z,99.99
2017-01-31T11:28:09.737Z,99.99
2017-01-31T11:29:09.721Z,99.99
2017-01-31T11:30:09.696Z,99.99
2017-01-31T11:31:09.679Z,99.99
2017-01-31T11:32:09.674Z,99.99
2017-01-31T11:33:09.243Z,99.99
2017-01-31T11:34:09.623Z,99.99
2017-01-31T11:35:09.610Z,99.99
2017-01-31T11:36:09.587Z,99.99
2017-01-31T11:37:09.566Z,99.99
2017-01-31T11:38:09.543Z,99.99
2017-01-31T11:39:09.523Z,99.99
2017-01-31T11:40:09.508Z,99.99
2017-01-31T11:41:09.483Z,99.99
2017-01-31T11:42:09.464Z,99.99
2017-01-31T11:43:09.053Z,99.99
2017-01-31T11:44:09.434Z,99.99
2017-01-31T11:45:09.436Z,99.99
2017-01-31T11:46:09.398Z,99.99
2017-01-31T11:47:09.375Z,99.99
2017-01-31T11:48:09.355Z,99.99
2017-01-31T11:49:09.335Z,99.99
2017-01-31T11:50:09.313Z,99.99
2017-01-31T11:51:09.294Z,99.99
2017-01-31T11:52:08.881Z,99.99
2017-01-31T11:53:08.864Z,99.99
2017-01-31T11:54:08.842Z,99.99
2017-01-31T11:55:08.821Z,99.99
2017-01-31T11:56:08.801Z,99.99
2017-01-31T11:57:08.785Z,99.99
2017-01-31T11:58:08.765Z,99.99
2017-01-31T11:59:08.746Z,99.99
2017-01-31T12:00:09.125Z,99.99
2017-01-31T12:01:09.111Z,99.99
2017-01-31T12:02:09.087Z,99.99
2017-01-31T12:03:09.072Z,99.99
2017-01-31T12:04:09.053Z,99.99
2017-01-31T12:05:09.075Z,99.99
2017-01-31T12:06:08.816Z,99.99
2017-01-31T12:07:09.003Z,99.99
2017-01-31T12:08:08.969Z,99.99
2017-01-31T12:09:08.950Z,99.99
2017-01-31T12:10:08.932Z,99.99
2017-01-31T12:11:08.536Z,99.99
2017-01-31T12:12:08.895Z,99.99
2017-01-31T12:13:08.872Z,99.99
2017-01-31T12:14:08.460Z,99.99
2017-01-31T12:15:09.097Z,99.99
2017-01-31T12:16:08.826Z,99.99
2017-01-31T12:17:08.801Z,99.99
2017-01-31T12:18:08.782Z,99.99
2017-01-31T12:19:08.757Z,99.99
2017-01-31T12:20:08.743Z,99.99
2017-01-31T12:21:08.724Z,99.99
2017-01-31T12:22:08.703Z,99.99
2017-01-31T12:23:08.685Z,99.99
2017-01-31T12:24:08.664Z,99.99
2017-01-31T12:25:08.648Z,99.99
2017-01-31T12:26:08.232Z,99.99
2017-01-31T12:27:08.756Z,99.99
2017-01-31T12:28:08.197Z,99.99
2017-01-31T12:29:08.578Z,99.99
2017-01-31T12:30:08.554Z,99.99
2017-01-31T12:31:08.526Z,99.99
2017-01-31T12:32:08.122Z,99.99
2017-01-31T12:33:08.492Z,99.99
2017-01-31T12:34:08.470Z,99.99
2017-01-31T12:35:08.479Z,99.99
2017-01-31T12:36:08.427Z,99.99
2017-01-31T12:37:08.408Z,99.99
2017-01-31T12:38:08.397Z,99.99
2017-01-31T12:39:08.372Z,99.99
2017-01-31T12:40:08.357Z,99.99
2017-01-31T12:41:08.331Z,99.99
2017-01-31T12:42:08.324Z,99.99
2017-01-31T12:43:08.290Z,99.99
2017-01-31T12:44:08.300Z,99.99
2017-01-31T12:45:08.254Z,99.99
2017-01-31T12:46:07.841Z,99.99
2017-01-31T12:47:08.212Z,99.99
2017-01-31T12:48:08.193Z,99.99
2017-01-31T12:49:08.178Z,99.99
2017-01-31T12:50:08.156Z,99.99
2017-01-31T12:51:08.137Z,99.99
2017-01-31T12:52:08.115Z,99.99
2017-01-31T12:53:08.099Z,99.99
2017-01-31T12:54:08.080Z,99.99
2017-01-31T12:55:08.062Z,99.99